sensor_id;sensor_type;location;lat;lon;timestamp;P1;durP1;ratioP1;P2;durP2;ratioP2
24161;SDS011;12318;51.262;7.066;2023-07-02T00:00:30;10.55;;;2.85;;
24161;SDS011;12318;51.262;7.066;2023-07-02T00:02:56;10.93;;;3.63;;
24161;SDS011;12318;51.262;7.066;2023-07-02T00:05:24;6.95;;;3.20;;
24161;SDS011;12318;51.262;7.066;2023-07-02T00:07:50;11.48;;;3.63;;
24161;SDS011;12318;51.262;7.066;2023-07-02T00:10:15;11.30;;;4.05;;
24161;SDS011;12318;51.262;7.066;2023-07-02T00:12:41;9.88;;;3.47;;
24161;SDS011;12318;51.262;7.066;2023-07-02T00:15:09;7.95;;;3.30;;
24161;SDS011;12318;51.262;7.066;2023-07-02T00:17:35;11.52;;;3.83;;
24161;SDS011;12318;51.262;7.066;2023-07-02T00:20:06;7.30;;;3.30;;
24161;SDS011;12318;51.262;7.066;2023-07-02T00:22:39;8.73;;;3.42;;
24161;SDS011;12318;51.262;7.066;2023-07-02T00:25:08;10.30;;;3.47;;
24161;SDS011;12318;51.262;7.066;2023-07-02T00:27:35;12.27;;;3.58;;
24161;SDS011;12318;51.262;7.066;2023-07-02T00:30:02;10.27;;;4.07;;
24161;SDS011;12318;51.262;7.066;2023-07-02T00:32:28;11.85;;;3.88;;
24161;SDS011;12318;51.262;7.066;2023-07-02T00:34:54;10.93;;;3.72;;
24161;SDS011;12318;51.262;7.066;2023-07-02T00:37:20;10.90;;;4.28;;
24161;SDS011;12318;51.262;7.066;2023-07-02T00:39:45;11.82;;;3.80;;
24161;SDS011;12318;51.262;7.066;2023-07-02T00:42:11;12.52;;;4.05;;
24161;SDS011;12318;51.262;7.066;2023-07-02T00:44:37;9.70;;;3.63;;
24161;SDS011;12318;51.262;7.066;2023-07-02T00:47:07;7.00;;;3.20;;
24161;SDS011;12318;51.262;7.066;2023-07-02T00:49:33;10.60;;;3.97;;
24161;SDS011;12318;51.262;7.066;2023-07-02T00:51:59;12.32;;;3.55;;
24161;SDS011;12318;51.262;7.066;2023-07-02T00:54:27;14.65;;;4.07;;
24161;SDS011;12318;51.262;7.066;2023-07-02T00:56:54;12.23;;;4.10;;
24161;SDS011;12318;51.262;7.066;2023-07-02T00:59:20;12.60;;;3.13;;
24161;SDS011;12318;51.262;7.066;2023-07-02T01:01:46;14.48;;;4.18;;
24161;SDS011;12318;51.262;7.066;2023-07-02T01:04:18;8.30;;;3.47;;
24161;SDS011;12318;51.262;7.066;2023-07-02T01:06:44;14.35;;;3.90;;
24161;SDS011;12318;51.262;7.066;2023-07-02T01:09:10;15.48;;;4.07;;
24161;SDS011;12318;51.262;7.066;2023-07-02T01:14:11;10.35;;;3.88;;
24161;SDS011;12318;51.262;7.066;2023-07-02T01:16:38;12.70;;;4.35;;
24161;SDS011;12318;51.262;7.066;2023-07-02T01:19:11;11.63;;;3.88;;
24161;SDS011;12318;51.262;7.066;2023-07-02T01:21:43;14.63;;;4.50;;
24161;SDS011;12318;51.262;7.066;2023-07-02T01:24:11;12.45;;;4.80;;
24161;SDS011;12318;51.262;7.066;2023-07-02T01:26:37;15.55;;;5.63;;
24161;SDS011;12318;51.262;7.066;2023-07-02T01:29:13;10.57;;;4.30;;
24161;SDS011;12318;51.262;7.066;2023-07-02T01:31:39;11.52;;;4.75;;
24161;SDS011;12318;51.262;7.066;2023-07-02T01:34:05;8.15;;;4.57;;
24161;SDS011;12318;51.262;7.066;2023-07-02T01:36:35;11.73;;;4.80;;
24161;SDS011;12318;51.262;7.066;2023-07-02T01:39:01;13.80;;;5.13;;
24161;SDS011;12318;51.262;7.066;2023-07-02T01:41:27;13.13;;;5.57;;
24161;SDS011;12318;51.262;7.066;2023-07-02T01:43:53;12.48;;;5.22;;
24161;SDS011;12318;51.262;7.066;2023-07-02T01:46:19;19.15;;;6.03;;
24161;SDS011;12318;51.262;7.066;2023-07-02T01:48:45;14.98;;;6.40;;
24161;SDS011;12318;51.262;7.066;2023-07-02T01:51:11;13.73;;;5.90;;
24161;SDS011;12318;51.262;7.066;2023-07-02T01:53:38;17.35;;;6.72;;
24161;SDS011;12318;51.262;7.066;2023-07-02T01:56:04;17.27;;;7.05;;
24161;SDS011;12318;51.262;7.066;2023-07-02T01:58:30;20.60;;;7.70;;
24161;SDS011;12318;51.262;7.066;2023-07-02T02:00:56;20.30;;;7.63;;
24161;SDS011;12318;51.262;7.066;2023-07-02T02:03:22;18.58;;;7.45;;
24161;SDS011;12318;51.262;7.066;2023-07-02T02:05:48;26.13;;;7.95;;
24161;SDS011;12318;51.262;7.066;2023-07-02T02:08:14;17.45;;;7.40;;
24161;SDS011;12318;51.262;7.066;2023-07-02T02:10:40;24.17;;;7.85;;
24161;SDS011;12318;51.262;7.066;2023-07-02T02:13:05;15.82;;;7.75;;
24161;SDS011;12318;51.262;7.066;2023-07-02T02:15:31;20.08;;;7.75;;
24161;SDS011;12318;51.262;7.066;2023-07-02T02:17:57;15.88;;;7.55;;
24161;SDS011;12318;51.262;7.066;2023-07-02T02:20:23;17.75;;;8.13;;
24161;SDS011;12318;51.262;7.066;2023-07-02T02:22:48;18.95;;;7.70;;
24161;SDS011;12318;51.262;7.066;2023-07-02T02:25:15;19.85;;;8.00;;
24161;SDS011;12318;51.262;7.066;2023-07-02T02:27:40;19.52;;;8.00;;
24161;SDS011;12318;51.262;7.066;2023-07-02T02:30:08;20.83;;;7.82;;
24161;SDS011;12318;51.262;7.066;2023-07-02T02:32:34;19.25;;;7.75;;
24161;SDS011;12318;51.262;7.066;2023-07-02T02:35:00;22.70;;;9.07;;
24161;SDS011;12318;51.262;7.066;2023-07-02T02:37:25;21.13;;;9.65;;
24161;SDS011;12318;51.262;7.066;2023-07-02T02:39:51;25.35;;;9.25;;
24161;SDS011;12318;51.262;7.066;2023-07-02T02:42:17;26.92;;;9.32;;
24161;SDS011;12318;51.262;7.066;2023-07-02T02:44:43;28.70;;;9.45;;
24161;SDS011;12318;51.262;7.066;2023-07-02T02:47:09;24.67;;;10.25;;
24161;SDS011;12318;51.262;7.066;2023-07-02T02:49:36;21.75;;;10.45;;
24161;SDS011;12318;51.262;7.066;2023-07-02T02:52:03;25.20;;;11.05;;
24161;SDS011;12318;51.262;7.066;2023-07-02T02:54:29;22.88;;;9.77;;
24161;SDS011;12318;51.262;7.066;2023-07-02T02:56:55;25.88;;;11.13;;
24161;SDS011;12318;51.262;7.066;2023-07-02T02:59:21;24.13;;;10.80;;
24161;SDS011;12318;51.262;7.066;2023-07-02T03:01:46;24.17;;;10.48;;
24161;SDS011;12318;51.262;7.066;2023-07-02T03:04:13;27.20;;;12.15;;
24161;SDS011;12318;51.262;7.066;2023-07-02T03:06:39;23.27;;;10.98;;
24161;SDS011;12318;51.262;7.066;2023-07-02T03:09:05;28.73;;;11.38;;
24161;SDS011;12318;51.262;7.066;2023-07-02T03:11:31;28.30;;;11.57;;
24161;SDS011;12318;51.262;7.066;2023-07-02T03:13:56;25.30;;;12.07;;
24161;SDS011;12318;51.262;7.066;2023-07-02T03:16:22;28.98;;;12.27;;
24161;SDS011;12318;51.262;7.066;2023-07-02T03:18:48;28.48;;;12.85;;
24161;SDS011;12318;51.262;7.066;2023-07-02T03:21:14;29.65;;;11.52;;
24161;SDS011;12318;51.262;7.066;2023-07-02T03:23:39;28.05;;;12.13;;
24161;SDS011;12318;51.262;7.066;2023-07-02T03:26:05;26.15;;;12.88;;
24161;SDS011;12318;51.262;7.066;2023-07-02T03:28:31;30.05;;;12.93;;
24161;SDS011;12318;51.262;7.066;2023-07-02T03:30:59;30.55;;;13.32;;
24161;SDS011;12318;51.262;7.066;2023-07-02T03:33:24;30.45;;;13.25;;
24161;SDS011;12318;51.262;7.066;2023-07-02T03:35:50;34.30;;;14.20;;
24161;SDS011;12318;51.262;7.066;2023-07-02T03:38:16;33.60;;;13.85;;
24161;SDS011;12318;51.262;7.066;2023-07-02T03:40:42;29.65;;;13.05;;
24161;SDS011;12318;51.262;7.066;2023-07-02T03:43:08;32.92;;;13.95;;
24161;SDS011;12318;51.262;7.066;2023-07-02T03:45:34;26.95;;;13.20;;
24161;SDS011;12318;51.262;7.066;2023-07-02T03:48:00;32.40;;;13.50;;
24161;SDS011;12318;51.262;7.066;2023-07-02T03:50:25;30.95;;;13.60;;
24161;SDS011;12318;51.262;7.066;2023-07-02T03:52:51;32.15;;;15.05;;
24161;SDS011;12318;51.262;7.066;2023-07-02T03:55:18;35.22;;;14.75;;
24161;SDS011;12318;51.262;7.066;2023-07-02T03:57:44;37.50;;;15.77;;
24161;SDS011;12318;51.262;7.066;2023-07-02T04:00:10;32.70;;;15.07;;
24161;SDS011;12318;51.262;7.066;2023-07-02T04:02:36;32.45;;;14.60;;
24161;SDS011;12318;51.262;7.066;2023-07-02T04:05:02;30.83;;;14.65;;
24161;SDS011;12318;51.262;7.066;2023-07-02T04:07:28;31.52;;;14.85;;
24161;SDS011;12318;51.262;7.066;2023-07-02T04:09:55;36.28;;;15.18;;
24161;SDS011;12318;51.262;7.066;2023-07-02T04:12:21;29.38;;;14.30;;
24161;SDS011;12318;51.262;7.066;2023-07-02T04:14:47;36.15;;;14.15;;
24161;SDS011;12318;51.262;7.066;2023-07-02T04:17:12;36.25;;;15.52;;
24161;SDS011;12318;51.262;7.066;2023-07-02T04:19:38;34.35;;;15.05;;
24161;SDS011;12318;51.262;7.066;2023-07-02T04:22:04;29.05;;;14.85;;
24161;SDS011;12318;51.262;7.066;2023-07-02T04:24:30;31.77;;;15.27;;
24161;SDS011;12318;51.262;7.066;2023-07-02T04:26:56;30.80;;;14.85;;
24161;SDS011;12318;51.262;7.066;2023-07-02T04:29:21;35.88;;;15.98;;
24161;SDS011;12318;51.262;7.066;2023-07-02T04:31:47;30.52;;;14.73;;
24161;SDS011;12318;51.262;7.066;2023-07-02T04:34:13;31.60;;;15.20;;
24161;SDS011;12318;51.262;7.066;2023-07-02T04:36:39;31.25;;;15.65;;
24161;SDS011;12318;51.262;7.066;2023-07-02T04:39:05;34.97;;;15.98;;
24161;SDS011;12318;51.262;7.066;2023-07-02T04:41:30;33.22;;;15.77;;
24161;SDS011;12318;51.262;7.066;2023-07-02T04:43:57;30.85;;;15.40;;
24161;SDS011;12318;51.262;7.066;2023-07-02T04:46:23;36.00;;;16.80;;
24161;SDS011;12318;51.262;7.066;2023-07-02T04:48:49;39.15;;;16.20;;
24161;SDS011;12318;51.262;7.066;2023-07-02T04:51:15;34.33;;;16.33;;
24161;SDS011;12318;51.262;7.066;2023-07-02T04:53:40;35.58;;;16.05;;
24161;SDS011;12318;51.262;7.066;2023-07-02T04:56:07;34.40;;;16.27;;
24161;SDS011;12318;51.262;7.066;2023-07-02T04:58:32;33.30;;;15.40;;
24161;SDS011;12318;51.262;7.066;2023-07-02T05:00:58;39.60;;;16.70;;
24161;SDS011;12318;51.262;7.066;2023-07-02T05:03:24;34.40;;;16.33;;
24161;SDS011;12318;51.262;7.066;2023-07-02T05:05:49;34.58;;;16.73;;
24161;SDS011;12318;51.262;7.066;2023-07-02T05:08:15;37.22;;;17.35;;
24161;SDS011;12318;51.262;7.066;2023-07-02T05:10:41;35.55;;;16.85;;
24161;SDS011;12318;51.262;7.066;2023-07-02T05:13:09;39.75;;;18.17;;
24161;SDS011;12318;51.262;7.066;2023-07-02T05:15:35;35.78;;;17.48;;
24161;SDS011;12318;51.262;7.066;2023-07-02T05:18:01;36.40;;;17.23;;
24161;SDS011;12318;51.262;7.066;2023-07-02T05:20:26;35.35;;;17.60;;
24161;SDS011;12318;51.262;7.066;2023-07-02T05:22:52;36.13;;;17.33;;
24161;SDS011;12318;51.262;7.066;2023-07-02T05:25:19;35.75;;;17.55;;
24161;SDS011;12318;51.262;7.066;2023-07-02T05:27:45;33.10;;;17.17;;
24161;SDS011;12318;51.262;7.066;2023-07-02T05:30:10;35.40;;;17.60;;
24161;SDS011;12318;51.262;7.066;2023-07-02T05:32:37;39.03;;;18.38;;
24161;SDS011;12318;51.262;7.066;2023-07-02T05:35:04;42.35;;;18.00;;
24161;SDS011;12318;51.262;7.066;2023-07-02T05:37:30;37.78;;;17.00;;
24161;SDS011;12318;51.262;7.066;2023-07-02T05:39:56;35.53;;;17.55;;
24161;SDS011;12318;51.262;7.066;2023-07-02T05:42:22;37.63;;;17.27;;
24161;SDS011;12318;51.262;7.066;2023-07-02T05:44:47;39.63;;;17.45;;
24161;SDS011;12318;51.262;7.066;2023-07-02T05:47:13;32.42;;;16.77;;
24161;SDS011;12318;51.262;7.066;2023-07-02T05:49:40;39.33;;;17.98;;
24161;SDS011;12318;51.262;7.066;2023-07-02T05:52:07;43.80;;;19.20;;
24161;SDS011;12318;51.262;7.066;2023-07-02T05:54:33;40.30;;;18.88;;
24161;SDS011;12318;51.262;7.066;2023-07-02T05:56:59;38.97;;;18.10;;
24161;SDS011;12318;51.262;7.066;2023-07-02T05:59:25;36.92;;;18.08;;
24161;SDS011;12318;51.262;7.066;2023-07-02T06:01:50;42.55;;;18.45;;
24161;SDS011;12318;51.262;7.066;2023-07-02T06:04:16;36.97;;;18.27;;
24161;SDS011;12318;51.262;7.066;2023-07-02T06:06:42;33.55;;;17.15;;
24161;SDS011;12318;51.262;7.066;2023-07-02T06:09:08;39.97;;;17.90;;
24161;SDS011;12318;51.262;7.066;2023-07-02T06:11:34;41.22;;;18.27;;
24161;SDS011;12318;51.262;7.066;2023-07-02T06:13:59;35.80;;;18.02;;
24161;SDS011;12318;51.262;7.066;2023-07-02T06:16:25;38.70;;;17.65;;
24161;SDS011;12318;51.262;7.066;2023-07-02T06:18:51;40.65;;;17.08;;
24161;SDS011;12318;51.262;7.066;2023-07-02T06:21:17;36.03;;;17.83;;
24161;SDS011;12318;51.262;7.066;2023-07-02T06:23:44;38.65;;;18.08;;
24161;SDS011;12318;51.262;7.066;2023-07-02T06:26:12;40.03;;;18.20;;
24161;SDS011;12318;51.262;7.066;2023-07-02T06:28:38;39.22;;;18.00;;
24161;SDS011;12318;51.262;7.066;2023-07-02T06:31:04;42.97;;;17.75;;
24161;SDS011;12318;51.262;7.066;2023-07-02T06:33:30;39.58;;;16.85;;
24161;SDS011;12318;51.262;7.066;2023-07-02T06:35:56;32.33;;;17.17;;
24161;SDS011;12318;51.262;7.066;2023-07-02T06:38:21;39.35;;;17.23;;
24161;SDS011;12318;51.262;7.066;2023-07-02T06:40:47;38.17;;;17.02;;
24161;SDS011;12318;51.262;7.066;2023-07-02T06:43:13;32.53;;;15.82;;
24161;SDS011;12318;51.262;7.066;2023-07-02T06:45:41;32.85;;;16.17;;
24161;SDS011;12318;51.262;7.066;2023-07-02T06:48:07;38.65;;;17.10;;
24161;SDS011;12318;51.262;7.066;2023-07-02T06:50:32;33.20;;;15.65;;
24161;SDS011;12318;51.262;7.066;2023-07-02T06:52:58;33.88;;;15.65;;
24161;SDS011;12318;51.262;7.066;2023-07-02T06:55:24;33.65;;;16.08;;
24161;SDS011;12318;51.262;7.066;2023-07-02T06:57:50;36.88;;;16.38;;
24161;SDS011;12318;51.262;7.066;2023-07-02T07:00:16;31.65;;;16.30;;
24161;SDS011;12318;51.262;7.066;2023-07-02T07:02:41;34.38;;;16.00;;
24161;SDS011;12318;51.262;7.066;2023-07-02T07:05:07;35.75;;;15.75;;
24161;SDS011;12318;51.262;7.066;2023-07-02T07:07:34;35.05;;;16.05;;
24161;SDS011;12318;51.262;7.066;2023-07-02T07:10:00;33.97;;;15.13;;
24161;SDS011;12318;51.262;7.066;2023-07-02T07:12:26;37.30;;;16.05;;
24161;SDS011;12318;51.262;7.066;2023-07-02T07:14:52;35.25;;;15.13;;
24161;SDS011;12318;51.262;7.066;2023-07-02T07:17:18;32.55;;;15.05;;
24161;SDS011;12318;51.262;7.066;2023-07-02T07:19:44;32.10;;;14.95;;
24161;SDS011;12318;51.262;7.066;2023-07-02T07:22:12;42.70;;;15.52;;
24161;SDS011;12318;51.262;7.066;2023-07-02T07:24:39;31.67;;;15.30;;
24161;SDS011;12318;51.262;7.066;2023-07-02T07:27:06;33.50;;;15.10;;
24161;SDS011;12318;51.262;7.066;2023-07-02T07:29:32;33.10;;;15.55;;
24161;SDS011;12318;51.262;7.066;2023-07-02T07:31:57;28.00;;;14.32;;
24161;SDS011;12318;51.262;7.066;2023-07-02T07:34:23;33.78;;;14.70;;
24161;SDS011;12318;51.262;7.066;2023-07-02T07:36:49;28.67;;;13.68;;
24161;SDS011;12318;51.262;7.066;2023-07-02T07:39:15;31.77;;;14.20;;
24161;SDS011;12318;51.262;7.066;2023-07-02T07:41:40;29.75;;;13.43;;
24161;SDS011;12318;51.262;7.066;2023-07-02T07:44:06;28.60;;;13.85;;
24161;SDS011;12318;51.262;7.066;2023-07-02T07:46:32;29.92;;;14.10;;
24161;SDS011;12318;51.262;7.066;2023-07-02T07:48:58;30.30;;;12.27;;
24161;SDS011;12318;51.262;7.066;2023-07-02T07:51:23;28.75;;;13.05;;
24161;SDS011;12318;51.262;7.066;2023-07-02T07:53:49;27.42;;;12.65;;
24161;SDS011;12318;51.262;7.066;2023-07-02T07:56:16;25.90;;;10.68;;
24161;SDS011;12318;51.262;7.066;2023-07-02T07:58:42;29.63;;;11.50;;
24161;SDS011;12318;51.262;7.066;2023-07-02T08:01:07;31.92;;;12.50;;
24161;SDS011;12318;51.262;7.066;2023-07-02T08:03:36;24.80;;;11.98;;
24161;SDS011;12318;51.262;7.066;2023-07-02T08:06:02;27.98;;;11.40;;
24161;SDS011;12318;51.262;7.066;2023-07-02T08:08:28;25.58;;;11.77;;
24161;SDS011;12318;51.262;7.066;2023-07-02T08:10:54;27.52;;;11.05;;
24161;SDS011;12318;51.262;7.066;2023-07-02T08:13:19;25.85;;;11.55;;
24161;SDS011;12318;51.262;7.066;2023-07-02T08:15:45;25.77;;;11.60;;
24161;SDS011;12318;51.262;7.066;2023-07-02T08:18:11;27.55;;;12.18;;
24161;SDS011;12318;51.262;7.066;2023-07-02T08:20:38;22.67;;;11.40;;
24161;SDS011;12318;51.262;7.066;2023-07-02T08:23:04;25.88;;;12.23;;
24161;SDS011;12318;51.262;7.066;2023-07-02T08:25:31;28.77;;;11.77;;
24161;SDS011;12318;51.262;7.066;2023-07-02T08:27:56;25.10;;;11.48;;
24161;SDS011;12318;51.262;7.066;2023-07-02T08:30:23;33.13;;;12.93;;
24161;SDS011;12318;51.262;7.066;2023-07-02T08:32:48;28.95;;;13.20;;
24161;SDS011;12318;51.262;7.066;2023-07-02T08:35:14;31.13;;;13.23;;
24161;SDS011;12318;51.262;7.066;2023-07-02T08:37:41;29.50;;;13.00;;
24161;SDS011;12318;51.262;7.066;2023-07-02T08:40:15;28.17;;;12.35;;
24161;SDS011;12318;51.262;7.066;2023-07-02T08:42:42;28.60;;;12.80;;
24161;SDS011;12318;51.262;7.066;2023-07-02T08:45:08;28.23;;;11.48;;
24161;SDS011;12318;51.262;7.066;2023-07-02T08:47:35;26.23;;;11.77;;
24161;SDS011;12318;51.262;7.066;2023-07-02T08:50:02;24.05;;;12.35;;
24161;SDS011;12318;51.262;7.066;2023-07-02T08:52:30;26.85;;;12.93;;
24161;SDS011;12318;51.262;7.066;2023-07-02T08:54:56;27.58;;;12.60;;
24161;SDS011;12318;51.262;7.066;2023-07-02T08:57:21;27.83;;;12.90;;
24161;SDS011;12318;51.262;7.066;2023-07-02T08:59:47;33.33;;;14.13;;
24161;SDS011;12318;51.262;7.066;2023-07-02T09:02:14;29.98;;;13.80;;
24161;SDS011;12318;51.262;7.066;2023-07-02T09:04:39;29.55;;;13.38;;
24161;SDS011;12318;51.262;7.066;2023-07-02T09:07:06;28.27;;;12.85;;
24161;SDS011;12318;51.262;7.066;2023-07-02T09:09:33;33.58;;;13.77;;
24161;SDS011;12318;51.262;7.066;2023-07-02T09:12:09;31.33;;;13.32;;
24161;SDS011;12318;51.262;7.066;2023-07-02T09:14:35;25.75;;;12.82;;
24161;SDS011;12318;51.262;7.066;2023-07-02T09:17:07;24.08;;;12.88;;
24161;SDS011;12318;51.262;7.066;2023-07-02T09:19:34;34.17;;;13.82;;
24161;SDS011;12318;51.262;7.066;2023-07-02T09:22:01;30.00;;;13.25;;
24161;SDS011;12318;51.262;7.066;2023-07-02T09:24:29;31.40;;;13.27;;
24161;SDS011;12318;51.262;7.066;2023-07-02T09:26:59;28.63;;;12.57;;
24161;SDS011;12318;51.262;7.066;2023-07-02T09:29:28;28.58;;;12.43;;
24161;SDS011;12318;51.262;7.066;2023-07-02T09:31:55;31.63;;;12.25;;
24161;SDS011;12318;51.262;7.066;2023-07-02T09:34:32;32.95;;;13.13;;
24161;SDS011;12318;51.262;7.066;2023-07-02T09:37:02;26.83;;;12.63;;
24161;SDS011;12318;51.262;7.066;2023-07-02T09:39:30;31.15;;;13.77;;
24161;SDS011;12318;51.262;7.066;2023-07-02T09:42:01;30.45;;;12.43;;
24161;SDS011;12318;51.262;7.066;2023-07-02T09:44:32;27.10;;;12.27;;
24161;SDS011;12318;51.262;7.066;2023-07-02T09:47:08;33.90;;;13.27;;
24161;SDS011;12318;51.262;7.066;2023-07-02T09:49:35;31.10;;;13.25;;
24161;SDS011;12318;51.262;7.066;2023-07-02T09:52:07;33.85;;;13.75;;
24161;SDS011;12318;51.262;7.066;2023-07-02T09:54:34;30.77;;;14.45;;
24161;SDS011;12318;51.262;7.066;2023-07-02T09:57:01;28.42;;;14.27;;
24161;SDS011;12318;51.262;7.066;2023-07-02T09:59:27;35.05;;;15.77;;
24161;SDS011;12318;51.262;7.066;2023-07-02T10:01:53;36.35;;;15.35;;
24161;SDS011;12318;51.262;7.066;2023-07-02T10:04:20;30.75;;;14.73;;
24161;SDS011;12318;51.262;7.066;2023-07-02T10:06:55;37.85;;;16.10;;
24161;SDS011;12318;51.262;7.066;2023-07-02T10:09:34;34.83;;;15.25;;
24161;SDS011;12318;51.262;7.066;2023-07-02T10:12:01;33.80;;;14.88;;
24161;SDS011;12318;51.262;7.066;2023-07-02T10:14:41;36.63;;;16.25;;
24161;SDS011;12318;51.262;7.066;2023-07-02T10:17:08;31.42;;;15.30;;
24161;SDS011;12318;51.262;7.066;2023-07-02T10:19:34;31.58;;;15.52;;
24161;SDS011;12318;51.262;7.066;2023-07-02T10:22:01;36.00;;;15.68;;
24161;SDS011;12318;51.262;7.066;2023-07-02T10:24:28;33.45;;;15.55;;
24161;SDS011;12318;51.262;7.066;2023-07-02T10:26:58;39.45;;;15.98;;
24161;SDS011;12318;51.262;7.066;2023-07-02T10:29:25;41.55;;;17.27;;
24161;SDS011;12318;51.262;7.066;2023-07-02T10:31:55;40.25;;;16.25;;
24161;SDS011;12318;51.262;7.066;2023-07-02T10:34:31;39.67;;;17.58;;
24161;SDS011;12318;51.262;7.066;2023-07-02T10:37:00;39.45;;;17.25;;
24161;SDS011;12318;51.262;7.066;2023-07-02T10:39:27;34.55;;;16.13;;
24161;SDS011;12318;51.262;7.066;2023-07-02T10:42:03;30.45;;;14.70;;
24161;SDS011;12318;51.262;7.066;2023-07-02T10:44:33;37.05;;;13.20;;
24161;SDS011;12318;51.262;7.066;2023-07-02T10:46:59;28.85;;;12.90;;
24161;SDS011;12318;51.262;7.066;2023-07-02T10:49:31;26.35;;;12.20;;
24161;SDS011;12318;51.262;7.066;2023-07-02T10:52:01;25.63;;;11.80;;
24161;SDS011;12318;51.262;7.066;2023-07-02T10:54:47;27.80;;;11.60;;
24161;SDS011;12318;51.262;7.066;2023-07-02T10:57:14;25.13;;;10.75;;
24161;SDS011;12318;51.262;7.066;2023-07-02T10:59:45;31.17;;;11.38;;
24161;SDS011;12318;51.262;7.066;2023-07-02T11:02:12;23.42;;;10.25;;
24161;SDS011;12318;51.262;7.066;2023-07-02T11:04:38;22.98;;;10.25;;
24161;SDS011;12318;51.262;7.066;2023-07-02T11:07:04;22.65;;;10.20;;
24161;SDS011;12318;51.262;7.066;2023-07-02T11:09:30;20.35;;;9.45;;
24161;SDS011;12318;51.262;7.066;2023-07-02T11:11:56;20.38;;;8.60;;
24161;SDS011;12318;51.262;7.066;2023-07-02T11:14:41;21.08;;;8.68;;
24161;SDS011;12318;51.262;7.066;2023-07-02T11:17:07;19.95;;;8.43;;
24161;SDS011;12318;51.262;7.066;2023-07-02T11:19:33;18.63;;;7.68;;
24161;SDS011;12318;51.262;7.066;2023-07-02T11:21:59;18.00;;;7.53;;
24161;SDS011;12318;51.262;7.066;2023-07-02T11:26:59;20.15;;;7.80;;
24161;SDS011;12318;51.262;7.066;2023-07-02T11:29:27;17.20;;;8.02;;
24161;SDS011;12318;51.262;7.066;2023-07-02T11:31:54;22.90;;;8.02;;
24161;SDS011;12318;51.262;7.066;2023-07-02T11:34:25;19.73;;;8.30;;
24161;SDS011;12318;51.262;7.066;2023-07-02T11:36:50;17.13;;;8.02;;
24161;SDS011;12318;51.262;7.066;2023-07-02T11:39:18;16.05;;;7.15;;
24161;SDS011;12318;51.262;7.066;2023-07-02T11:41:45;22.95;;;8.50;;
24161;SDS011;12318;51.262;7.066;2023-07-02T11:44:12;17.50;;;8.02;;
24161;SDS011;12318;51.262;7.066;2023-07-02T11:46:38;17.67;;;7.85;;
24161;SDS011;12318;51.262;7.066;2023-07-02T11:49:04;25.25;;;8.07;;
24161;SDS011;12318;51.262;7.066;2023-07-02T11:51:30;18.50;;;8.18;;
24161;SDS011;12318;51.262;7.066;2023-07-02T11:53:56;17.75;;;7.97;;
24161;SDS011;12318;51.262;7.066;2023-07-02T11:56:23;22.35;;;8.30;;
24161;SDS011;12318;51.262;7.066;2023-07-02T11:58:49;17.42;;;7.60;;
24161;SDS011;12318;51.262;7.066;2023-07-02T12:01:15;19.08;;;8.10;;
24161;SDS011;12318;51.262;7.066;2023-07-02T12:03:40;16.65;;;7.22;;
24161;SDS011;12318;51.262;7.066;2023-07-02T12:06:06;18.90;;;7.20;;
24161;SDS011;12318;51.262;7.066;2023-07-02T12:08:32;17.70;;;6.90;;
24161;SDS011;12318;51.262;7.066;2023-07-02T12:10:58;14.93;;;6.88;;
24161;SDS011;12318;51.262;7.066;2023-07-02T12:13:23;21.48;;;7.18;;
24161;SDS011;12318;51.262;7.066;2023-07-02T12:15:49;18.02;;;7.30;;
24161;SDS011;12318;51.262;7.066;2023-07-02T12:18:16;16.15;;;6.93;;
24161;SDS011;12318;51.262;7.066;2023-07-02T12:20:42;20.38;;;7.60;;
24161;SDS011;12318;51.262;7.066;2023-07-02T12:23:08;19.75;;;7.30;;
24161;SDS011;12318;51.262;7.066;2023-07-02T12:25:36;14.50;;;7.30;;
24161;SDS011;12318;51.262;7.066;2023-07-02T12:28:02;21.52;;;7.72;;
24161;SDS011;12318;51.262;7.066;2023-07-02T12:30:29;17.63;;;7.65;;
24161;SDS011;12318;51.262;7.066;2023-07-02T12:32:55;17.92;;;7.45;;
24161;SDS011;12318;51.262;7.066;2023-07-02T12:35:21;16.55;;;7.32;;
24161;SDS011;12318;51.262;7.066;2023-07-02T12:37:48;20.02;;;8.32;;
24161;SDS011;12318;51.262;7.066;2023-07-02T12:40:15;16.63;;;8.05;;
24161;SDS011;12318;51.262;7.066;2023-07-02T12:42:42;24.83;;;8.70;;
24161;SDS011;12318;51.262;7.066;2023-07-02T12:45:14;22.30;;;8.70;;
24161;SDS011;12318;51.262;7.066;2023-07-02T12:47:45;18.80;;;7.70;;
24161;SDS011;12318;51.262;7.066;2023-07-02T12:50:19;23.15;;;7.82;;
24161;SDS011;12318;51.262;7.066;2023-07-02T12:53:08;18.98;;;8.05;;
24161;SDS011;12318;51.262;7.066;2023-07-02T12:55:57;19.13;;;8.18;;
24161;SDS011;12318;51.262;7.066;2023-07-02T12:58:51;21.75;;;8.73;;
24161;SDS011;12318;51.262;7.066;2023-07-02T13:01:17;19.85;;;7.50;;
24161;SDS011;12318;51.262;7.066;2023-07-02T13:03:46;14.82;;;7.10;;
24161;SDS011;12318;51.262;7.066;2023-07-02T13:06:12;23.13;;;7.85;;
24161;SDS011;12318;51.262;7.066;2023-07-02T13:08:42;16.13;;;7.97;;
24161;SDS011;12318;51.262;7.066;2023-07-02T13:11:07;20.83;;;8.00;;
24161;SDS011;12318;51.262;7.066;2023-07-02T13:13:36;20.58;;;7.80;;
24161;SDS011;12318;51.262;7.066;2023-07-02T13:16:02;16.17;;;7.15;;
24161;SDS011;12318;51.262;7.066;2023-07-02T13:18:28;17.17;;;7.60;;
24161;SDS011;12318;51.262;7.066;2023-07-02T13:20:54;20.45;;;7.72;;
24161;SDS011;12318;51.262;7.066;2023-07-02T13:23:19;17.48;;;7.20;;
24161;SDS011;12318;51.262;7.066;2023-07-02T13:25:45;14.77;;;6.72;;
24161;SDS011;12318;51.262;7.066;2023-07-02T13:28:11;16.70;;;7.40;;
24161;SDS011;12318;51.262;7.066;2023-07-02T13:30:37;17.33;;;7.07;;
24161;SDS011;12318;51.262;7.066;2023-07-02T13:33:02;16.05;;;6.80;;
24161;SDS011;12318;51.262;7.066;2023-07-02T13:35:28;21.10;;;7.72;;
24161;SDS011;12318;51.262;7.066;2023-07-02T13:37:54;18.40;;;7.40;;
24161;SDS011;12318;51.262;7.066;2023-07-02T13:40:20;18.42;;;7.18;;
24161;SDS011;12318;51.262;7.066;2023-07-02T13:42:45;20.23;;;7.38;;
24161;SDS011;12318;51.262;7.066;2023-07-02T13:45:12;18.98;;;7.22;;
24161;SDS011;12318;51.262;7.066;2023-07-02T13:47:37;14.52;;;7.00;;
24161;SDS011;12318;51.262;7.066;2023-07-02T13:50:03;16.20;;;7.90;;
24161;SDS011;12318;51.262;7.066;2023-07-02T13:52:30;15.70;;;6.95;;
24161;SDS011;12318;51.262;7.066;2023-07-02T13:54:55;20.90;;;7.20;;
24161;SDS011;12318;51.262;7.066;2023-07-02T13:57:21;16.92;;;7.80;;
24161;SDS011;12318;51.262;7.066;2023-07-02T13:59:47;14.77;;;6.93;;
24161;SDS011;12318;51.262;7.066;2023-07-02T14:02:13;20.27;;;7.97;;
24161;SDS011;12318;51.262;7.066;2023-07-02T14:04:39;16.60;;;7.65;;
24161;SDS011;12318;51.262;7.066;2023-07-02T14:07:05;19.35;;;7.35;;
24161;SDS011;12318;51.262;7.066;2023-07-02T14:09:31;16.70;;;7.43;;
24161;SDS011;12318;51.262;7.066;2023-07-02T14:11:56;17.65;;;7.88;;
24161;SDS011;12318;51.262;7.066;2023-07-02T14:14:23;18.20;;;7.78;;
24161;SDS011;12318;51.262;7.066;2023-07-02T14:16:48;20.63;;;8.35;;
24161;SDS011;12318;51.262;7.066;2023-07-02T14:19:14;20.42;;;8.50;;
24161;SDS011;12318;51.262;7.066;2023-07-02T14:21:42;19.88;;;8.93;;
24161;SDS011;12318;51.262;7.066;2023-07-02T14:24:08;15.32;;;7.60;;
24161;SDS011;12318;51.262;7.066;2023-07-02T14:26:34;16.15;;;7.30;;
24161;SDS011;12318;51.262;7.066;2023-07-02T14:29:00;16.30;;;7.70;;
24161;SDS011;12318;51.262;7.066;2023-07-02T14:31:25;18.92;;;7.68;;